createdAt,value
2018-11-06T00:00:46.064Z,17.48
2018-11-06T00:04:04.984Z,15.78
2018-11-06T00:07:16.514Z,15.50
2018-11-06T00:10:28.211Z,15.43
2018-11-06T00:13:39.601Z,14.83
2018-11-06T00:16:51.082Z,12.53
2018-11-06T00:20:03.440Z,16.37
2018-11-06T00:23:14.620Z,15.78
2018-11-06T00:26:25.908Z,17.27
2018-11-06T00:29:37.730Z,13.43
2018-11-06T00:32:49.197Z,14.55
2018-11-06T00:36:00.904Z,17.75
2018-11-06T00:39:13.035Z,18.17
2018-11-06T00:42:24.545Z,14.07
2018-11-06T00:45:36.278Z,16.07
2018-11-06T00:48:47.889Z,14.05
2018-11-06T00:51:59.622Z,14.43
2018-11-06T00:55:12.355Z,13.88
2018-11-06T00:58:23.585Z,14.33
2018-11-06T01:01:35.306Z,14.20
2018-11-06T01:04:47.137Z,16.02
2018-11-06T01:07:59.114Z,14.55
2018-11-06T01:11:10.430Z,13.28
2018-11-06T01:14:21.696Z,11.55
2018-11-06T01:17:33.096Z,14.47
2018-11-06T01:20:44.798Z,15.65
2018-11-06T01:23:59.053Z,13.90
2018-11-06T01:27:10.441Z,12.53
2018-11-06T01:30:22.102Z,13.95
2018-11-06T01:33:33.728Z,12.63
2018-11-06T01:36:45.779Z,14.03
2018-11-06T01:39:57.351Z,14.78
2018-11-06T01:43:09.385Z,14.25
2018-11-06T01:46:21.142Z,15.75
2018-11-06T01:49:32.441Z,10.40
2018-11-06T01:52:45.412Z,14.15
2018-11-06T01:55:56.892Z,12.40
2018-11-06T01:59:08.661Z,10.53
2018-11-06T02:02:20.525Z,13.40
2018-11-06T02:05:32.514Z,10.38
2018-11-06T02:08:43.956Z,14.38
2018-11-06T02:11:55.923Z,12.65
2018-11-06T02:15:08.313Z,15.88
2018-11-06T02:18:20.128Z,12.75
2018-11-06T02:21:31.822Z,11.38
2018-11-06T02:24:42.960Z,12.40
2018-11-06T02:27:54.464Z,13.48
2018-11-06T02:31:05.935Z,12.50
2018-11-06T02:34:17.355Z,10.45
2018-11-06T02:37:28.371Z,12.65
2018-11-06T02:40:40.636Z,10.28
2018-11-06T02:43:52.364Z,10.28
2018-11-06T02:47:04.443Z,11.53
2018-11-06T02:50:16.038Z,12.45
2018-11-06T02:53:27.871Z,12.43
2018-11-06T02:56:39.593Z,12.70
2018-11-06T02:59:51.441Z,9.75
2018-11-06T03:03:02.987Z,8.08
2018-11-06T03:06:15.797Z,11.95
2018-11-06T03:09:27.414Z,11.88
2018-11-06T03:12:40.228Z,12.33
2018-11-06T03:15:52.001Z,12.88
2018-11-06T03:19:04.895Z,12.50
2018-11-06T03:22:16.799Z,12.30
2018-11-06T03:25:28.557Z,12.35
2018-11-06T03:28:39.924Z,9.10
2018-11-06T03:31:51.132Z,10.78
2018-11-06T03:35:03.167Z,12.75
2018-11-06T03:38:14.997Z,8.80
2018-11-06T03:41:27.134Z,9.05
2018-11-06T03:44:38.927Z,13.35
2018-11-06T03:47:50.044Z,9.15
2018-11-06T03:51:01.666Z,12.58
2018-11-06T03:54:13.499Z,12.07
2018-11-06T03:57:25.307Z,12.90
2018-11-06T04:00:36.438Z,13.83
2018-11-06T04:03:48.302Z,6.70
2018-11-06T04:07:00.237Z,10.10
2018-11-06T04:10:13.017Z,8.90
2018-11-06T04:13:24.212Z,11.12
2018-11-06T04:16:35.918Z,7.28
2018-11-06T04:19:47.860Z,9.65
2018-11-06T04:22:59.652Z,11.25
2018-11-06T04:26:10.710Z,8.70
2018-11-06T04:29:22.852Z,11.57
2018-11-06T04:32:34.695Z,10.00
2018-11-06T04:35:46.643Z,12.45
2018-11-06T04:38:58.818Z,11.75
2018-11-06T04:42:10.557Z,13.50
2018-11-06T04:45:22.000Z,10.82
2018-11-06T04:48:33.018Z,8.98
2018-11-06T04:51:44.285Z,6.67
2018-11-06T04:54:56.065Z,10.20
2018-11-06T04:58:07.909Z,8.08
2018-11-06T05:01:18.922Z,8.50
2018-11-06T05:04:30.967Z,8.58
2018-11-06T05:07:42.617Z,10.58
2018-11-06T05:10:54.141Z,9.88
2018-11-06T05:14:06.448Z,10.00
2018-11-06T05:17:18.089Z,7.12
2018-11-06T05:20:30.056Z,8.70
2018-11-06T05:23:41.129Z,10.53
2018-11-06T05:26:53.504Z,10.15
2018-11-06T05:30:05.304Z,11.28
2018-11-06T05:33:16.458Z,8.23
2018-11-06T05:36:28.333Z,13.00
2018-11-06T05:39:55.117Z,10.05
2018-11-06T05:43:07.289Z,10.23
2018-11-06T05:46:18.973Z,8.83
2018-11-06T05:49:31.016Z,11.83
2018-11-06T05:52:42.794Z,11.28
2018-11-06T05:55:54.734Z,9.45
2018-11-06T05:59:06.784Z,10.15
2018-11-06T06:02:18.580Z,10.32
2018-11-06T06:05:40.638Z,9.70
2018-11-06T06:08:52.620Z,8.23
2018-11-06T06:12:04.379Z,9.33
2018-11-06T06:15:15.981Z,9.00
2018-11-06T06:18:27.818Z,8.48
2018-11-06T06:21:38.923Z,10.35
2018-11-06T06:24:50.815Z,8.73
2018-11-06T06:28:01.885Z,8.28
2018-11-06T06:31:14.162Z,9.63
2018-11-06T06:34:26.656Z,9.68
2018-11-06T06:37:37.785Z,12.23
2018-11-06T06:40:49.648Z,9.75
2018-11-06T06:44:01.537Z,10.75
2018-11-06T06:47:13.417Z,11.50
2018-11-06T06:50:25.427Z,12.78
2018-11-06T06:53:37.323Z,9.30
2018-11-06T06:56:49.280Z,14.15
2018-11-06T07:00:00.485Z,11.65
2018-11-06T07:03:12.261Z,8.30
2018-11-06T07:06:24.567Z,8.60
2018-11-06T07:09:36.329Z,11.10
2018-11-06T07:12:49.256Z,9.70
2018-11-06T07:16:01.173Z,9.10
2018-11-06T07:19:13.037Z,8.78
2018-11-06T07:22:24.088Z,10.03
2018-11-06T07:25:36.062Z,9.58
2018-11-06T07:28:47.644Z,8.60
2018-11-06T07:31:59.754Z,9.33
2018-11-06T07:35:12.641Z,10.85
2018-11-06T07:38:24.268Z,8.03
2018-11-06T07:41:36.285Z,8.75
2018-11-06T07:44:47.985Z,7.62
2018-11-06T07:47:59.059Z,7.28
2018-11-06T07:51:10.890Z,9.85
2018-11-06T07:54:22.977Z,6.67
2018-11-06T07:57:34.841Z,8.48
2018-11-06T08:00:46.789Z,9.35
2018-11-06T08:03:58.726Z,8.73
2018-11-06T08:07:10.622Z,8.35
2018-11-06T08:10:22.589Z,7.50
2018-11-06T08:13:34.189Z,8.30
2018-11-06T08:16:46.168Z,6.65
2018-11-06T08:19:57.992Z,8.25
2018-11-06T08:23:09.594Z,6.62
2018-11-06T08:26:21.553Z,8.45
2018-11-06T08:29:33.209Z,5.78
2018-11-06T08:32:46.528Z,6.87
2018-11-06T08:35:57.823Z,6.40
2018-11-06T08:39:10.968Z,6.30
2018-11-06T08:42:22.221Z,7.90
2018-11-06T08:45:34.527Z,7.25
2018-11-06T08:48:46.237Z,8.65
2018-11-06T08:51:58.003Z,7.03
2018-11-06T08:55:11.225Z,6.85
2018-11-06T08:58:22.806Z,8.03
2018-11-06T09:01:34.615Z,6.55
2018-11-06T09:04:46.317Z,6.53
2018-11-06T09:07:58.172Z,6.10
2018-11-06T09:11:10.097Z,6.85
2018-11-06T09:14:22.596Z,5.58
2018-11-06T09:17:34.195Z,6.58
2018-11-06T09:20:46.006Z,7.87
2018-11-06T09:23:58.001Z,6.15
2018-11-06T09:27:09.882Z,5.05
2018-11-06T09:30:22.177Z,6.12
2018-11-06T09:33:34.180Z,4.60
2018-11-06T09:36:45.407Z,6.03
2018-11-06T09:39:57.200Z,5.55
2018-11-06T09:43:08.384Z,5.65
2018-11-06T09:46:20.169Z,5.92
2018-11-06T09:49:31.333Z,7.08
2018-11-06T09:52:44.093Z,5.37
2018-11-06T09:55:55.252Z,5.78
2018-11-06T09:59:07.485Z,5.47
2018-11-06T10:02:18.988Z,4.75
2018-11-06T10:05:30.099Z,5.50
2018-11-06T10:08:44.334Z,5.45
2018-11-06T10:11:55.823Z,5.92
2018-11-06T10:15:09.204Z,5.65
2018-11-06T10:18:20.826Z,4.35
2018-11-06T10:21:32.337Z,4.70
2018-11-06T10:24:43.358Z,4.83
2018-11-06T10:27:54.407Z,6.10
2018-11-06T10:31:06.368Z,5.42
2018-11-06T10:34:18.541Z,6.20
2018-11-06T10:37:30.093Z,4.50
2018-11-06T10:40:41.224Z,5.33
2018-11-06T10:43:53.045Z,4.42
2018-11-06T10:47:05.176Z,5.42
2018-11-06T10:50:17.558Z,7.08
2018-11-06T10:53:29.068Z,5.37
2018-11-06T10:56:41.156Z,5.20
2018-11-06T10:59:52.744Z,4.62
2018-11-06T11:03:07.666Z,7.25
2018-11-06T11:06:19.635Z,6.08
2018-11-06T11:09:31.135Z,5.20
2018-11-06T11:12:43.111Z,5.53
2018-11-06T11:15:54.780Z,5.37
2018-11-06T11:19:06.714Z,5.10
2018-11-06T11:22:18.515Z,5.35
2018-11-06T11:25:30.692Z,4.55
2018-11-06T11:28:42.124Z,5.78
2018-11-06T11:31:53.975Z,6.03
2018-11-06T11:35:05.984Z,5.90
2018-11-06T11:38:17.772Z,5.28
2018-11-06T11:41:29.208Z,4.83
2018-11-06T11:44:41.007Z,5.35
2018-11-06T11:47:52.046Z,4.67
2018-11-06T11:51:04.442Z,4.75
2018-11-06T11:54:15.716Z,4.90
2018-11-06T11:57:26.802Z,5.15
2018-11-06T12:00:39.282Z,6.00
2018-11-06T12:03:50.713Z,3.95
2018-11-06T12:07:02.442Z,5.60
2018-11-06T12:10:14.756Z,4.62
2018-11-06T12:13:26.016Z,6.17
2018-11-06T12:16:37.162Z,5.20
2018-11-06T12:19:49.880Z,5.33
2018-11-06T12:23:02.478Z,5.40
2018-11-06T12:26:13.909Z,4.25
2018-11-06T12:29:26.415Z,4.50
2018-11-06T12:32:38.291Z,5.22
2018-11-06T12:35:50.379Z,5.72
2018-11-06T12:39:01.983Z,4.67
2018-11-06T12:42:14.653Z,5.80
2018-11-06T12:45:26.325Z,5.03
2018-11-06T12:48:50.604Z,4.50
2018-11-06T12:52:02.734Z,5.33
2018-11-06T12:55:16.449Z,4.42
2018-11-06T12:58:28.351Z,4.45
2018-11-06T13:01:40.121Z,6.28
2018-11-06T13:04:52.716Z,3.83
2018-11-06T13:08:04.292Z,4.95
2018-11-06T13:11:16.386Z,4.90
2018-11-06T13:14:28.020Z,6.67
2018-11-06T13:17:39.293Z,7.37
2018-11-06T13:20:51.671Z,7.60
2018-11-06T13:24:02.772Z,6.80
2018-11-06T13:27:14.906Z,4.30
2018-11-06T13:30:26.657Z,6.53
2018-11-06T13:33:37.816Z,6.50
2018-11-06T13:36:50.217Z,6.62
2018-11-06T13:40:01.447Z,7.37
2018-11-06T13:43:13.189Z,8.10
2018-11-06T13:46:25.742Z,6.50
2018-11-06T13:49:37.704Z,6.00
2018-11-06T13:52:49.315Z,7.45
2018-11-06T13:56:00.337Z,7.17
2018-11-06T13:59:12.342Z,7.83
2018-11-06T14:02:24.284Z,10.70
2018-11-06T14:05:36.340Z,9.85
2018-11-06T14:08:47.869Z,11.03
2018-11-06T14:11:59.829Z,10.93
2018-11-06T14:15:11.980Z,10.35
2018-11-06T14:18:23.628Z,10.13
2018-11-06T14:21:35.325Z,10.18
2018-11-06T14:24:47.122Z,8.15
2018-11-06T14:27:58.961Z,10.65
2018-11-06T14:31:09.924Z,10.23
2018-11-06T14:34:21.776Z,11.15
2018-11-06T14:37:34.153Z,10.53
2018-11-06T14:40:45.611Z,10.25
2018-11-06T14:43:58.207Z,8.98
2018-11-06T14:47:09.768Z,12.95
2018-11-06T14:50:21.208Z,9.80
2018-11-06T14:53:33.044Z,9.30
2018-11-06T14:56:45.048Z,8.35
2018-11-06T14:59:56.933Z,12.80
2018-11-06T15:03:07.936Z,11.53
2018-11-06T15:06:19.829Z,11.80
2018-11-06T15:09:31.678Z,12.20
2018-11-06T15:12:43.522Z,11.63
2018-11-06T15:15:55.174Z,9.75
2018-11-06T15:19:07.106Z,11.10
2018-11-06T15:22:18.821Z,10.25
2018-11-06T15:25:30.832Z,10.70
2018-11-06T15:28:42.719Z,11.12
2018-11-06T15:31:54.913Z,11.57
2018-11-06T15:35:07.793Z,10.82
2018-11-06T15:38:19.232Z,11.25
2018-11-06T15:41:30.864Z,11.10
2018-11-06T15:44:43.531Z,11.20
2018-11-06T15:47:56.970Z,16.15
2018-11-06T15:51:09.893Z,13.32
2018-11-06T15:54:25.446Z,10.45
2018-11-06T15:57:38.310Z,11.00
2018-11-06T16:00:52.205Z,9.68
2018-11-06T16:04:05.777Z,13.78
2018-11-06T16:07:17.675Z,10.65
2018-11-06T16:10:29.589Z,12.23
2018-11-06T16:13:41.425Z,14.98
2018-11-06T16:16:53.114Z,12.53
2018-11-06T16:20:05.723Z,11.45
2018-11-06T16:23:18.274Z,12.93
2018-11-06T16:26:30.671Z,13.48
2018-11-06T16:29:46.073Z,12.73
2018-11-06T16:32:58.085Z,10.50
2018-11-06T16:36:10.909Z,14.23
2018-11-06T16:39:24.370Z,11.35
2018-11-06T16:42:35.817Z,14.40
2018-11-06T16:45:48.524Z,14.07
2018-11-06T16:49:02.438Z,11.50
2018-11-06T16:52:14.164Z,14.85
2018-11-06T16:55:26.135Z,14.63
2018-11-06T16:58:37.931Z,16.35
2018-11-06T17:01:49.449Z,17.95
2018-11-06T17:05:01.527Z,16.67
2018-11-06T17:08:13.405Z,15.83
2018-11-06T17:11:26.060Z,14.15
2018-11-06T17:14:38.016Z,13.98
2018-11-06T17:17:50.996Z,14.75
2018-11-06T17:21:07.811Z,12.37
2018-11-06T17:24:22.334Z,16.02
2018-11-06T17:27:35.754Z,12.53
2018-11-06T17:30:47.652Z,17.20
2018-11-06T17:33:59.474Z,18.82
2018-11-06T17:37:11.487Z,16.20
2018-11-06T17:40:22.741Z,17.27
2018-11-06T17:43:35.482Z,21.25
2018-11-06T17:46:47.347Z,15.70
2018-11-06T17:49:59.796Z,18.00
2018-11-06T17:53:11.712Z,20.55
2018-11-06T17:56:25.724Z,23.73
2018-11-06T17:59:38.320Z,22.70
2018-11-06T18:02:50.021Z,19.00
2018-11-06T18:06:01.736Z,23.27
2018-11-06T18:09:14.312Z,19.57
2018-11-06T18:12:26.349Z,22.77
2018-11-06T18:15:38.756Z,18.73
2018-11-06T18:18:50.371Z,19.85
2018-11-06T18:22:02.172Z,21.23
2018-11-06T18:25:18.232Z,17.50
2018-11-06T18:28:32.632Z,23.27
2018-11-06T18:31:46.764Z,19.92
2018-11-06T18:34:59.525Z,20.32
2018-11-06T18:38:12.037Z,22.65
2018-11-06T18:41:24.262Z,24.77
2018-11-06T18:44:36.953Z,19.07
2018-11-06T18:47:49.306Z,21.50
2018-11-06T18:51:00.633Z,24.25
2018-11-06T18:54:12.422Z,26.87
2018-11-06T18:57:25.359Z,25.82
2018-11-06T19:00:36.887Z,21.62
2018-11-06T19:03:48.214Z,21.10
2018-11-06T19:07:00.011Z,20.25
2018-11-06T19:10:12.706Z,19.23
2018-11-06T19:13:24.336Z,21.33
2018-11-06T19:16:36.099Z,18.55
2018-11-06T19:19:48.372Z,22.25
2018-11-06T19:23:00.095Z,24.32
2018-11-06T19:26:11.836Z,19.50
2018-11-06T19:29:23.111Z,20.75
2018-11-06T19:32:36.004Z,22.85
2018-11-06T19:35:47.786Z,25.12
2018-11-06T19:38:59.326Z,23.35
2018-11-06T19:42:12.298Z,23.85
2018-11-06T19:45:23.858Z,24.65
2018-11-06T19:48:35.590Z,22.45
2018-11-06T19:51:47.952Z,21.55
2018-11-06T19:55:00.769Z,24.55
2018-11-06T19:58:12.646Z,24.77
2018-11-06T20:01:25.211Z,20.55
2018-11-06T20:04:37.287Z,19.37
2018-11-06T20:07:49.790Z,24.85
2018-11-06T20:11:02.824Z,22.48
2018-11-06T20:14:15.296Z,26.73
2018-11-06T20:17:27.155Z,21.30
2018-11-06T20:20:39.597Z,17.23
2018-11-06T20:23:51.085Z,23.10
2018-11-06T20:27:03.307Z,20.35
2018-11-06T20:30:19.036Z,19.95
2018-11-06T20:33:31.690Z,23.62
2018-11-06T20:36:43.982Z,25.75
2018-11-06T20:39:56.148Z,21.40
2018-11-06T20:43:09.558Z,20.12
2018-11-06T20:46:21.516Z,23.20
2018-11-06T20:49:33.917Z,23.27
2018-11-06T20:52:46.655Z,18.90
2018-11-06T20:56:00.592Z,19.20
2018-11-06T20:59:12.550Z,21.65
2018-11-06T21:02:23.700Z,19.45
2018-11-06T21:05:36.174Z,20.15
2018-11-06T21:08:48.294Z,22.15
2018-11-06T21:12:00.858Z,23.07
2018-11-06T21:15:13.944Z,17.62
2018-11-06T21:18:25.645Z,22.00
2018-11-06T21:21:37.575Z,20.00
2018-11-06T21:24:48.906Z,16.73
2018-11-06T21:28:00.499Z,18.77
2018-11-06T21:31:12.155Z,20.43
2018-11-06T21:34:25.046Z,19.15
2018-11-06T21:37:37.654Z,19.73
2018-11-06T21:40:50.806Z,21.02
2018-11-06T21:44:03.621Z,21.37
2018-11-06T21:47:15.919Z,19.98
2018-11-06T21:50:27.191Z,24.47
2018-11-06T21:53:39.320Z,19.10
2018-11-06T21:56:52.160Z,22.27
2018-11-06T22:00:04.396Z,17.27
2018-11-06T22:03:15.846Z,21.50
2018-11-06T22:06:29.993Z,18.35
2018-11-06T22:09:44.047Z,21.55
2018-11-06T22:12:58.423Z,19.90
2018-11-06T22:16:13.137Z,19.07
2018-11-06T22:19:26.005Z,19.70
2018-11-06T22:22:39.019Z,19.30
2018-11-06T22:25:52.200Z,18.73
2018-11-06T22:29:06.310Z,22.10
2018-11-06T22:32:19.158Z,19.95
2018-11-06T22:35:32.631Z,18.37
2018-11-06T22:38:46.308Z,20.35
2018-11-06T22:41:58.325Z,17.98
2018-11-06T22:45:14.783Z,20.12
2018-11-06T22:48:27.832Z,21.57
2018-11-06T22:51:40.580Z,15.13
2018-11-06T22:54:53.876Z,23.12
2018-11-06T22:58:06.442Z,19.20
2018-11-06T23:01:24.986Z,21.65
2018-11-06T23:04:38.171Z,16.90
2018-11-06T23:07:55.637Z,16.62
2018-11-06T23:11:07.795Z,17.12
2018-11-06T23:14:19.123Z,15.78
2018-11-06T23:17:30.537Z,20.25
2018-11-06T23:20:42.292Z,17.65
2018-11-06T23:23:54.308Z,18.20
2018-11-06T23:27:05.457Z,20.25
2018-11-06T23:30:17.829Z,17.80
2018-11-06T23:33:29.141Z,15.43
2018-11-06T23:36:41.204Z,16.55
2018-11-06T23:39:52.761Z,15.30
2018-11-06T23:43:05.347Z,18.07
2018-11-06T23:46:16.644Z,17.00
2018-11-06T23:49:28.322Z,13.78
2018-11-06T23:52:39.344Z,14.35
2018-11-06T23:55:51.093Z,16.73
2018-11-06T23:59:09.192Z,16.62
